sensor_id;sensor_type;location;lat;lon;timestamp;temperature;humidity
5588;DHT22;2816;49.778;9.986;2023-12-04T00:00:09;-4.70;99.90
5588;DHT22;2816;49.778;9.986;2023-12-04T00:02:36;-4.70;99.90
5588;DHT22;2816;49.778;9.986;2023-12-04T00:05:05;-4.70;99.90
5588;DHT22;2816;49.778;9.986;2023-12-04T00:07:32;-4.70;99.90
5588;DHT22;2816;49.778;9.986;2023-12-04T00:09:59;-4.70;99.90
5588;DHT22;2816;49.778;9.986;2023-12-04T00:12:26;-4.70;99.90
5588;DHT22;2816;49.778;9.986;2023-12-04T00:14:55;-4.70;99.90
5588;DHT22;2816;49.778;9.986;2023-12-04T00:17:22;-4.60;99.90
5588;DHT22;2816;49.778;9.986;2023-12-04T00:19:48;-4.60;99.90
5588;DHT22;2816;49.778;9.986;2023-12-04T00:22:16;-4.60;99.90
5588;DHT22;2816;49.778;9.986;2023-12-04T00:24:43;-4.60;99.90
5588;DHT22;2816;49.778;9.986;2023-12-04T00:27:10;-4.50;99.90
5588;DHT22;2816;49.778;9.986;2023-12-04T00:29:37;-4.50;99.90
5588;DHT22;2816;49.778;9.986;2023-12-04T00:32:06;-4.50;99.90
5588;DHT22;2816;49.778;9.986;2023-12-04T00:34:33;-4.60;99.90
5588;DHT22;2816;49.778;9.986;2023-12-04T00:37:00;-4.60;99.90
5588;DHT22;2816;49.778;9.986;2023-12-04T00:39:27;-4.60;99.90
5588;DHT22;2816;49.778;9.986;2023-12-04T00:41:53;-4.60;99.90
5588;DHT22;2816;49.778;9.986;2023-12-04T00:44:20;-4.60;99.90
5588;DHT22;2816;49.778;9.986;2023-12-04T00:46:47;-4.60;99.90
5588;DHT22;2816;49.778;9.986;2023-12-04T00:49:15;-4.60;99.90
5588;DHT22;2816;49.778;9.986;2023-12-04T00:51:42;-4.60;99.90
5588;DHT22;2816;49.778;9.986;2023-12-04T00:54:09;-4.60;99.90
5588;DHT22;2816;49.778;9.986;2023-12-04T00:56:38;-4.60;99.90
5588;DHT22;2816;49.778;9.986;2023-12-04T00:59:05;-4.60;99.90
5588;DHT22;2816;49.778;9.986;2023-12-04T01:01:33;-4.50;99.90
5588;DHT22;2816;49.778;9.986;2023-12-04T01:04:00;-4.50;99.90
5588;DHT22;2816;49.778;9.986;2023-12-04T01:06:28;-4.50;99.90
5588;DHT22;2816;49.778;9.986;2023-12-04T01:08:56;-4.50;99.90
5588;DHT22;2816;49.778;9.986;2023-12-04T01:11:23;-4.50;99.90
5588;DHT22;2816;49.778;9.986;2023-12-04T01:13:50;-4.50;99.90
5588;DHT22;2816;49.778;9.986;2023-12-04T01:16:18;-4.50;99.90
5588;DHT22;2816;49.778;9.986;2023-12-04T01:18:45;-4.50;99.90
5588;DHT22;2816;49.778;9.986;2023-12-04T01:21:12;-4.50;99.90
5588;DHT22;2816;49.778;9.986;2023-12-04T01:23:40;-4.50;99.90
5588;DHT22;2816;49.778;9.986;2023-12-04T01:26:07;-4.50;99.90
5588;DHT22;2816;49.778;9.986;2023-12-04T01:28:34;-4.50;99.90
5588;DHT22;2816;49.778;9.986;2023-12-04T01:31:01;-4.50;99.90
5588;DHT22;2816;49.778;9.986;2023-12-04T01:33:29;-4.50;99.90
5588;DHT22;2816;49.778;9.986;2023-12-04T01:35:56;-4.60;99.90
5588;DHT22;2816;49.778;9.986;2023-12-04T01:38:24;-4.60;99.90
5588;DHT22;2816;49.778;9.986;2023-12-04T01:40:53;-4.70;99.90
5588;DHT22;2816;49.778;9.986;2023-12-04T01:43:19;-4.70;99.90
5588;DHT22;2816;49.778;9.986;2023-12-04T01:45:48;-4.80;99.90
5588;DHT22;2816;49.778;9.986;2023-12-04T01:48:17;-4.70;99.90
5588;DHT22;2816;49.778;9.986;2023-12-04T01:50:45;-4.70;99.90
5588;DHT22;2816;49.778;9.986;2023-12-04T01:53:12;-4.70;99.90
5588;DHT22;2816;49.778;9.986;2023-12-04T01:55:39;-4.70;99.90
5588;DHT22;2816;49.778;9.986;2023-12-04T01:58:09;-4.70;99.90
5588;DHT22;2816;49.778;9.986;2023-12-04T02:00:36;-4.70;99.90
5588;DHT22;2816;49.778;9.986;2023-12-04T02:03:03;-4.80;99.90
5588;DHT22;2816;49.778;9.986;2023-12-04T02:05:31;-4.70;99.90
5588;DHT22;2816;49.778;9.986;2023-12-04T02:08:00;-4.70;99.90
5588;DHT22;2816;49.778;9.986;2023-12-04T02:10:29;-4.80;99.90
5588;DHT22;2816;49.778;9.986;2023-12-04T02:12:55;-4.80;99.90
5588;DHT22;2816;49.778;9.986;2023-12-04T02:15:24;-4.80;99.90
5588;DHT22;2816;49.778;9.986;2023-12-04T02:17:51;-4.90;99.90
5588;DHT22;2816;49.778;9.986;2023-12-04T02:20:18;-4.90;99.90
5588;DHT22;2816;49.778;9.986;2023-12-04T02:22:45;-4.90;99.90
5588;DHT22;2816;49.778;9.986;2023-12-04T02:25:13;-4.90;99.90
5588;DHT22;2816;49.778;9.986;2023-12-04T02:27:44;-4.90;99.90
5588;DHT22;2816;49.778;9.986;2023-12-04T02:30:17;-4.90;99.90
5588;DHT22;2816;49.778;9.986;2023-12-04T02:32:45;-4.90;99.90
5588;DHT22;2816;49.778;9.986;2023-12-04T02:35:14;-4.90;99.90
5588;DHT22;2816;49.778;9.986;2023-12-04T02:37:43;-4.90;99.90
5588;DHT22;2816;49.778;9.986;2023-12-04T02:40:14;-4.90;99.90
5588;DHT22;2816;49.778;9.986;2023-12-04T02:42:41;-5.00;99.90
5588;DHT22;2816;49.778;9.986;2023-12-04T02:45:08;-5.00;99.90
5588;DHT22;2816;49.778;9.986;2023-12-04T02:47:35;-4.90;99.90
5588;DHT22;2816;49.778;9.986;2023-12-04T02:50:02;-4.90;99.90
5588;DHT22;2816;49.778;9.986;2023-12-04T02:52:29;-4.80;99.90
5588;DHT22;2816;49.778;9.986;2023-12-04T02:54:56;-4.80;99.90
5588;DHT22;2816;49.778;9.986;2023-12-04T02:57:24;-4.80;99.90
5588;DHT22;2816;49.778;9.986;2023-12-04T02:59:51;-4.80;99.90
5588;DHT22;2816;49.778;9.986;2023-12-04T03:02:18;-4.80;99.90
5588;DHT22;2816;49.778;9.986;2023-12-04T03:04:45;-4.80;99.90
5588;DHT22;2816;49.778;9.986;2023-12-04T03:07:12;-4.90;99.90
5588;DHT22;2816;49.778;9.986;2023-12-04T03:09:40;-4.90;99.90
5588;DHT22;2816;49.778;9.986;2023-12-04T03:12:07;-4.90;99.90
5588;DHT22;2816;49.778;9.986;2023-12-04T03:14:35;-4.90;99.90
5588;DHT22;2816;49.778;9.986;2023-12-04T03:17:02;-4.90;99.90
5588;DHT22;2816;49.778;9.986;2023-12-04T03:19:29;-4.90;99.90
5588;DHT22;2816;49.778;9.986;2023-12-04T03:21:56;-4.80;99.90
5588;DHT22;2816;49.778;9.986;2023-12-04T03:24:23;-4.80;99.90
5588;DHT22;2816;49.778;9.986;2023-12-04T03:26:50;-4.80;99.90
5588;DHT22;2816;49.778;9.986;2023-12-04T03:29:16;-4.90;99.90
5588;DHT22;2816;49.778;9.986;2023-12-04T03:31:45;-4.80;99.90
5588;DHT22;2816;49.778;9.986;2023-12-04T03:34:14;-4.80;99.90
5588;DHT22;2816;49.778;9.986;2023-12-04T03:36:40;-4.80;99.90
5588;DHT22;2816;49.778;9.986;2023-12-04T03:39:07;-4.80;99.90
5588;DHT22;2816;49.778;9.986;2023-12-04T03:41:34;-4.80;99.90
5588;DHT22;2816;49.778;9.986;2023-12-04T03:44:01;-4.80;99.90
5588;DHT22;2816;49.778;9.986;2023-12-04T03:46:28;-4.70;99.90
5588;DHT22;2816;49.778;9.986;2023-12-04T03:48:56;-4.70;99.90
5588;DHT22;2816;49.778;9.986;2023-12-04T03:51:23;-4.70;99.90
5588;DHT22;2816;49.778;9.986;2023-12-04T03:53:50;-4.70;99.90
5588;DHT22;2816;49.778;9.986;2023-12-04T03:56:18;-4.60;99.90
5588;DHT22;2816;49.778;9.986;2023-12-04T03:58:45;-4.70;99.90
5588;DHT22;2816;49.778;9.986;2023-12-04T04:01:12;-4.60;99.90
5588;DHT22;2816;49.778;9.986;2023-12-04T04:03:39;-4.70;99.90
5588;DHT22;2816;49.778;9.986;2023-12-04T04:06:10;-4.60;99.90
5588;DHT22;2816;49.778;9.986;2023-12-04T04:08:37;-4.70;99.90
5588;DHT22;2816;49.778;9.986;2023-12-04T04:11:04;-4.70;99.90
5588;DHT22;2816;49.778;9.986;2023-12-04T04:13:31;-4.60;99.90
5588;DHT22;2816;49.778;9.986;2023-12-04T04:15:58;-4.60;99.90
5588;DHT22;2816;49.778;9.986;2023-12-04T04:18:25;-4.60;99.90
5588;DHT22;2816;49.778;9.986;2023-12-04T04:20:51;-4.60;99.90
5588;DHT22;2816;49.778;9.986;2023-12-04T04:23:20;-4.60;99.90
5588;DHT22;2816;49.778;9.986;2023-12-04T04:25:47;-4.60;99.90
5588;DHT22;2816;49.778;9.986;2023-12-04T04:28:14;-4.60;99.90
5588;DHT22;2816;49.778;9.986;2023-12-04T04:30:41;-4.60;99.90
5588;DHT22;2816;49.778;9.986;2023-12-04T04:33:08;-4.60;99.90
5588;DHT22;2816;49.778;9.986;2023-12-04T04:35:35;-4.60;99.90
5588;DHT22;2816;49.778;9.986;2023-12-04T04:38:02;-4.60;99.90
5588;DHT22;2816;49.778;9.986;2023-12-04T04:40:30;-4.60;99.90
5588;DHT22;2816;49.778;9.986;2023-12-04T04:42:57;-4.50;99.90
5588;DHT22;2816;49.778;9.986;2023-12-04T04:45:23;-4.50;99.90
5588;DHT22;2816;49.778;9.986;2023-12-04T04:47:50;-4.50;99.90
5588;DHT22;2816;49.778;9.986;2023-12-04T04:50:17;-4.50;99.90
5588;DHT22;2816;49.778;9.986;2023-12-04T04:52:44;-4.40;99.90
5588;DHT22;2816;49.778;9.986;2023-12-04T04:55:11;-4.50;99.90
5588;DHT22;2816;49.778;9.986;2023-12-04T04:57:39;-4.50;99.90
5588;DHT22;2816;49.778;9.986;2023-12-04T05:00:07;-4.50;99.90
5588;DHT22;2816;49.778;9.986;2023-12-04T05:02:34;-4.50;99.90
5588;DHT22;2816;49.778;9.986;2023-12-04T05:05:03;-4.40;99.90
5588;DHT22;2816;49.778;9.986;2023-12-04T05:07:30;-4.30;99.90
5588;DHT22;2816;49.778;9.986;2023-12-04T05:09:57;-4.40;99.90
5588;DHT22;2816;49.778;9.986;2023-12-04T05:12:24;-4.40;99.90
5588;DHT22;2816;49.778;9.986;2023-12-04T05:14:52;-4.40;99.90
5588;DHT22;2816;49.778;9.986;2023-12-04T05:17:19;-4.40;99.90
5588;DHT22;2816;49.778;9.986;2023-12-04T05:19:46;-4.40;99.90
5588;DHT22;2816;49.778;9.986;2023-12-04T05:22:13;-4.40;99.90
5588;DHT22;2816;49.778;9.986;2023-12-04T05:24:40;-4.30;99.90
5588;DHT22;2816;49.778;9.986;2023-12-04T05:27:07;-4.30;99.90
5588;DHT22;2816;49.778;9.986;2023-12-04T05:29:34;-4.30;99.90
5588;DHT22;2816;49.778;9.986;2023-12-04T05:32:02;-4.30;99.90
5588;DHT22;2816;49.778;9.986;2023-12-04T05:34:29;-4.40;99.90
5588;DHT22;2816;49.778;9.986;2023-12-04T05:36:56;-4.30;99.90
5588;DHT22;2816;49.778;9.986;2023-12-04T05:39:23;-4.30;99.90
5588;DHT22;2816;49.778;9.986;2023-12-04T05:41:49;-4.40;99.90
5588;DHT22;2816;49.778;9.986;2023-12-04T05:44:16;-4.30;99.90
5588;DHT22;2816;49.778;9.986;2023-12-04T05:46:43;-4.30;99.90
5588;DHT22;2816;49.778;9.986;2023-12-04T05:49:11;-4.30;99.90
5588;DHT22;2816;49.778;9.986;2023-12-04T05:51:38;-4.30;99.90
5588;DHT22;2816;49.778;9.986;2023-12-04T05:54:05;-4.40;99.90
5588;DHT22;2816;49.778;9.986;2023-12-04T05:56:32;-4.30;99.90
5588;DHT22;2816;49.778;9.986;2023-12-04T05:58:59;-4.30;99.90
5588;DHT22;2816;49.778;9.986;2023-12-04T06:01:26;-4.30;99.90
5588;DHT22;2816;49.778;9.986;2023-12-04T06:03:53;-4.20;99.90
5588;DHT22;2816;49.778;9.986;2023-12-04T06:06:21;-4.20;99.90
5588;DHT22;2816;49.778;9.986;2023-12-04T06:08:48;-4.20;99.90
5588;DHT22;2816;49.778;9.986;2023-12-04T06:11:15;-4.30;99.90
5588;DHT22;2816;49.778;9.986;2023-12-04T06:13:42;-4.30;99.90
5588;DHT22;2816;49.778;9.986;2023-12-04T06:16:09;-4.30;99.90
5588;DHT22;2816;49.778;9.986;2023-12-04T06:18:36;-4.50;99.90
5588;DHT22;2816;49.778;9.986;2023-12-04T06:21:04;-4.40;99.90
5588;DHT22;2816;49.778;9.986;2023-12-04T06:23:33;-4.40;99.90
5588;DHT22;2816;49.778;9.986;2023-12-04T06:26:01;-4.30;99.90
5588;DHT22;2816;49.778;9.986;2023-12-04T06:28:28;-4.30;99.90
5588;DHT22;2816;49.778;9.986;2023-12-04T06:30:55;-4.30;99.90
5588;DHT22;2816;49.778;9.986;2023-12-04T06:33:24;-4.20;99.90
5588;DHT22;2816;49.778;9.986;2023-12-04T06:35:53;-4.30;99.90
5588;DHT22;2816;49.778;9.986;2023-12-04T06:38:24;-4.30;99.90
5588;DHT22;2816;49.778;9.986;2023-12-04T06:40:53;-4.30;99.90
5588;DHT22;2816;49.778;9.986;2023-12-04T06:43:21;-4.40;99.90
5588;DHT22;2816;49.778;9.986;2023-12-04T06:45:49;-4.40;99.90
5588;DHT22;2816;49.778;9.986;2023-12-04T06:48:16;-4.40;99.90
5588;DHT22;2816;49.778;9.986;2023-12-04T06:50:43;-4.40;99.90
5588;DHT22;2816;49.778;9.986;2023-12-04T06:53:10;-4.40;99.90
5588;DHT22;2816;49.778;9.986;2023-12-04T06:55:37;-4.40;99.90
5588;DHT22;2816;49.778;9.986;2023-12-04T06:58:07;-4.40;99.90
5588;DHT22;2816;49.778;9.986;2023-12-04T07:00:34;-4.40;99.90
5588;DHT22;2816;49.778;9.986;2023-12-04T07:03:01;-4.40;99.90
5588;DHT22;2816;49.778;9.986;2023-12-04T07:05:28;-4.50;99.90
5588;DHT22;2816;49.778;9.986;2023-12-04T07:07:54;-4.50;99.90
5588;DHT22;2816;49.778;9.986;2023-12-04T07:10:21;-4.50;99.90
5588;DHT22;2816;49.778;9.986;2023-12-04T07:12:49;-4.50;99.90
5588;DHT22;2816;49.778;9.986;2023-12-04T07:15:19;-4.50;99.90
5588;DHT22;2816;49.778;9.986;2023-12-04T07:17:46;-4.50;99.90
5588;DHT22;2816;49.778;9.986;2023-12-04T07:20:13;-4.50;99.90
5588;DHT22;2816;49.778;9.986;2023-12-04T07:22:40;-4.50;99.90
5588;DHT22;2816;49.778;9.986;2023-12-04T07:25:08;-4.40;99.90
5588;DHT22;2816;49.778;9.986;2023-12-04T07:27:35;-4.50;99.90
5588;DHT22;2816;49.778;9.986;2023-12-04T07:30:02;-4.40;99.90
5588;DHT22;2816;49.778;9.986;2023-12-04T07:32:31;-4.40;99.90
5588;DHT22;2816;49.778;9.986;2023-12-04T07:34:58;-4.40;99.90
5588;DHT22;2816;49.778;9.986;2023-12-04T07:37:25;-4.40;99.90
5588;DHT22;2816;49.778;9.986;2023-12-04T07:39:52;-4.40;99.90
5588;DHT22;2816;49.778;9.986;2023-12-04T07:42:19;-4.40;99.90
5588;DHT22;2816;49.778;9.986;2023-12-04T07:44:49;-4.40;99.90
5588;DHT22;2816;49.778;9.986;2023-12-04T07:47:16;-4.30;99.90
5588;DHT22;2816;49.778;9.986;2023-12-04T07:49:46;-4.30;99.90
5588;DHT22;2816;49.778;9.986;2023-12-04T07:52:13;-4.40;99.90
5588;DHT22;2816;49.778;9.986;2023-12-04T07:54:40;-4.30;99.90
5588;DHT22;2816;49.778;9.986;2023-12-04T07:57:07;-4.30;99.90
5588;DHT22;2816;49.778;9.986;2023-12-04T07:59:34;-4.30;99.90
5588;DHT22;2816;49.778;9.986;2023-12-04T08:02:01;-4.30;99.90
5588;DHT22;2816;49.778;9.986;2023-12-04T08:04:28;-4.30;99.90
5588;DHT22;2816;49.778;9.986;2023-12-04T08:06:56;-4.30;99.90
5588;DHT22;2816;49.778;9.986;2023-12-04T08:09:23;-4.20;99.90
5588;DHT22;2816;49.778;9.986;2023-12-04T08:11:51;-4.20;99.90
5588;DHT22;2816;49.778;9.986;2023-12-04T08:14:17;-4.20;99.90
5588;DHT22;2816;49.778;9.986;2023-12-04T08:16:44;-4.10;99.90
5588;DHT22;2816;49.778;9.986;2023-12-04T08:19:11;-4.10;99.90
5588;DHT22;2816;49.778;9.986;2023-12-04T08:21:38;-4.10;99.90
5588;DHT22;2816;49.778;9.986;2023-12-04T08:24:07;-4.10;99.90
5588;DHT22;2816;49.778;9.986;2023-12-04T08:26:34;-4.10;99.90
5588;DHT22;2816;49.778;9.986;2023-12-04T08:29:02;-4.00;99.90
5588;DHT22;2816;49.778;9.986;2023-12-04T08:31:29;-4.00;99.90
5588;DHT22;2816;49.778;9.986;2023-12-04T08:33:56;-4.00;99.90
5588;DHT22;2816;49.778;9.986;2023-12-04T08:36:23;-3.90;99.90
5588;DHT22;2816;49.778;9.986;2023-12-04T08:38:50;-3.90;99.90
5588;DHT22;2816;49.778;9.986;2023-12-04T08:41:18;-3.90;99.90
5588;DHT22;2816;49.778;9.986;2023-12-04T08:43:45;-3.90;99.90
5588;DHT22;2816;49.778;9.986;2023-12-04T08:46:12;-3.90;99.90
5588;DHT22;2816;49.778;9.986;2023-12-04T08:48:40;-3.80;99.90
5588;DHT22;2816;49.778;9.986;2023-12-04T08:51:07;-3.80;99.90
5588;DHT22;2816;49.778;9.986;2023-12-04T08:53:35;-3.70;99.90
5588;DHT22;2816;49.778;9.986;2023-12-04T08:56:02;-3.70;99.90
5588;DHT22;2816;49.778;9.986;2023-12-04T08:58:31;-3.80;99.90
5588;DHT22;2816;49.778;9.986;2023-12-04T09:00:57;-3.70;99.90
5588;DHT22;2816;49.778;9.986;2023-12-04T09:03:25;-3.60;99.90
5588;DHT22;2816;49.778;9.986;2023-12-04T09:05:52;-3.50;99.90
5588;DHT22;2816;49.778;9.986;2023-12-04T09:08:22;-3.60;99.90
5588;DHT22;2816;49.778;9.986;2023-12-04T09:10:49;-3.50;99.90
5588;DHT22;2816;49.778;9.986;2023-12-04T09:13:15;-3.50;99.90
5588;DHT22;2816;49.778;9.986;2023-12-04T09:15:44;-3.50;99.90
5588;DHT22;2816;49.778;9.986;2023-12-04T09:18:12;-3.50;99.90
5588;DHT22;2816;49.778;9.986;2023-12-04T09:20:38;-3.40;99.90
5588;DHT22;2816;49.778;9.986;2023-12-04T09:23:05;-3.50;99.90
5588;DHT22;2816;49.778;9.986;2023-12-04T09:25:32;-3.40;99.90
5588;DHT22;2816;49.778;9.986;2023-12-04T09:27:59;-3.50;99.90
5588;DHT22;2816;49.778;9.986;2023-12-04T09:30:26;-3.50;99.90
5588;DHT22;2816;49.778;9.986;2023-12-04T09:32:55;-3.40;99.90
5588;DHT22;2816;49.778;9.986;2023-12-04T09:35:22;-3.40;99.90
5588;DHT22;2816;49.778;9.986;2023-12-04T09:37:49;-3.40;99.90
5588;DHT22;2816;49.778;9.986;2023-12-04T09:40:16;-3.40;99.90
5588;DHT22;2816;49.778;9.986;2023-12-04T09:42:43;-3.40;99.90
5588;DHT22;2816;49.778;9.986;2023-12-04T09:45:12;-3.40;99.90
5588;DHT22;2816;49.778;9.986;2023-12-04T09:47:39;-3.30;99.90
5588;DHT22;2816;49.778;9.986;2023-12-04T09:50:08;-3.30;99.90
5588;DHT22;2816;49.778;9.986;2023-12-04T09:52:36;-3.20;99.90
5588;DHT22;2816;49.778;9.986;2023-12-04T09:55:04;-3.20;99.90
5588;DHT22;2816;49.778;9.986;2023-12-04T09:57:31;-3.20;99.90
5588;DHT22;2816;49.778;9.986;2023-12-04T10:00:00;-3.10;99.90
5588;DHT22;2816;49.778;9.986;2023-12-04T10:02:29;-3.20;99.90
5588;DHT22;2816;49.778;9.986;2023-12-04T10:04:56;-3.10;99.90
5588;DHT22;2816;49.778;9.986;2023-12-04T10:07:24;-3.10;99.90
5588;DHT22;2816;49.778;9.986;2023-12-04T10:09:51;-3.00;99.90
5588;DHT22;2816;49.778;9.986;2023-12-04T10:12:19;-2.90;99.90
5588;DHT22;2816;49.778;9.986;2023-12-04T10:15:03;-3.00;99.90
5588;DHT22;2816;49.778;9.986;2023-12-04T10:17:33;-2.90;99.90
5588;DHT22;2816;49.778;9.986;2023-12-04T10:20:06;-3.00;99.90
5588;DHT22;2816;49.778;9.986;2023-12-04T10:22:55;-2.80;99.90
5588;DHT22;2816;49.778;9.986;2023-12-04T10:25:23;-2.80;99.90
5588;DHT22;2816;49.778;9.986;2023-12-04T10:27:51;-2.80;99.90
5588;DHT22;2816;49.778;9.986;2023-12-04T10:30:25;-2.70;99.90
5588;DHT22;2816;49.778;9.986;2023-12-04T10:32:56;-2.70;99.90
5588;DHT22;2816;49.778;9.986;2023-12-04T10:35:27;-2.60;99.90
5588;DHT22;2816;49.778;9.986;2023-12-04T10:37:56;-2.60;99.90
5588;DHT22;2816;49.778;9.986;2023-12-04T10:40:24;-2.70;99.90
5588;DHT22;2816;49.778;9.986;2023-12-04T10:42:51;-2.60;99.90
5588;DHT22;2816;49.778;9.986;2023-12-04T10:45:18;-2.60;99.90
5588;DHT22;2816;49.778;9.986;2023-12-04T10:47:48;-2.60;99.90
5588;DHT22;2816;49.778;9.986;2023-12-04T10:50:17;-2.60;99.90
5588;DHT22;2816;49.778;9.986;2023-12-04T10:52:44;-2.60;99.90
5588;DHT22;2816;49.778;9.986;2023-12-04T10:55:14;-2.60;99.90
5588;DHT22;2816;49.778;9.986;2023-12-04T10:57:42;-2.60;99.90
5588;DHT22;2816;49.778;9.986;2023-12-04T11:00:11;-2.60;99.90
5588;DHT22;2816;49.778;9.986;2023-12-04T11:02:43;-2.50;99.90
5588;DHT22;2816;49.778;9.986;2023-12-04T11:05:15;-2.50;99.90
5588;DHT22;2816;49.778;9.986;2023-12-04T11:07:48;-2.50;99.90
5588;DHT22;2816;49.778;9.986;2023-12-04T11:10:22;-2.50;99.90
5588;DHT22;2816;49.778;9.986;2023-12-04T11:12:56;-2.50;99.90
5588;DHT22;2816;49.778;9.986;2023-12-04T11:15:24;-2.40;99.90
5588;DHT22;2816;49.778;9.986;2023-12-04T11:17:54;-2.30;99.90
5588;DHT22;2816;49.778;9.986;2023-12-04T11:20:28;-2.30;99.90
5588;DHT22;2816;49.778;9.986;2023-12-04T11:22:57;-2.20;99.90
5588;DHT22;2816;49.778;9.986;2023-12-04T11:25:26;-2.20;99.90
5588;DHT22;2816;49.778;9.986;2023-12-04T11:27:55;-2.30;99.90
5588;DHT22;2816;49.778;9.986;2023-12-04T11:30:23;-2.30;99.90
5588;DHT22;2816;49.778;9.986;2023-12-04T11:32:50;-2.20;99.90
5588;DHT22;2816;49.778;9.986;2023-12-04T11:35:25;-2.20;99.90
5588;DHT22;2816;49.778;9.986;2023-12-04T11:37:53;-2.30;99.90
5588;DHT22;2816;49.778;9.986;2023-12-04T11:40:20;-2.50;99.90
5588;DHT22;2816;49.778;9.986;2023-12-04T11:42:48;-2.40;99.90
5588;DHT22;2816;49.778;9.986;2023-12-04T11:45:19;-2.40;99.90
5588;DHT22;2816;49.778;9.986;2023-12-04T11:47:50;-2.20;99.90
5588;DHT22;2816;49.778;9.986;2023-12-04T11:50:18;-2.10;99.90
5588;DHT22;2816;49.778;9.986;2023-12-04T11:52:46;-2.20;99.90
5588;DHT22;2816;49.778;9.986;2023-12-04T11:55:16;-2.20;99.90
5588;DHT22;2816;49.778;9.986;2023-12-04T11:57:43;-2.20;99.90
5588;DHT22;2816;49.778;9.986;2023-12-04T12:00:19;-2.20;99.90
5588;DHT22;2816;49.778;9.986;2023-12-04T12:02:49;-2.20;99.90
5588;DHT22;2816;49.778;9.986;2023-12-04T12:05:27;-2.10;99.90
5588;DHT22;2816;49.778;9.986;2023-12-04T12:07:55;-2.10;99.90
5588;DHT22;2816;49.778;9.986;2023-12-04T12:10:23;-2.00;99.90
5588;DHT22;2816;49.778;9.986;2023-12-04T12:12:50;-2.00;99.90
5588;DHT22;2816;49.778;9.986;2023-12-04T12:15:18;-2.10;99.90
5588;DHT22;2816;49.778;9.986;2023-12-04T12:17:46;-2.10;99.90
5588;DHT22;2816;49.778;9.986;2023-12-04T12:20:15;-2.10;99.90
5588;DHT22;2816;49.778;9.986;2023-12-04T12:22:42;-2.00;99.90
5588;DHT22;2816;49.778;9.986;2023-12-04T12:25:10;-2.10;99.90
5588;DHT22;2816;49.778;9.986;2023-12-04T12:27:37;-2.10;99.90
5588;DHT22;2816;49.778;9.986;2023-12-04T12:30:05;-2.00;99.90
5588;DHT22;2816;49.778;9.986;2023-12-04T12:32:34;-2.10;99.90
5588;DHT22;2816;49.778;9.986;2023-12-04T12:35:02;-2.10;99.90
5588;DHT22;2816;49.778;9.986;2023-12-04T12:37:30;-2.00;99.90
5588;DHT22;2816;49.778;9.986;2023-12-04T12:39:57;-2.00;99.90
5588;DHT22;2816;49.778;9.986;2023-12-04T12:42:24;-2.00;99.90
5588;DHT22;2816;49.778;9.986;2023-12-04T12:44:52;-2.00;99.90
5588;DHT22;2816;49.778;9.986;2023-12-04T12:47:19;-1.90;99.90
5588;DHT22;2816;49.778;9.986;2023-12-04T12:49:48;-2.00;99.90
5588;DHT22;2816;49.778;9.986;2023-12-04T12:52:15;-1.80;99.90
5588;DHT22;2816;49.778;9.986;2023-12-04T12:54:43;-1.80;99.90
5588;DHT22;2816;49.778;9.986;2023-12-04T12:57:12;-1.80;99.90
5588;DHT22;2816;49.778;9.986;2023-12-04T12:59:39;-1.70;99.90
5588;DHT22;2816;49.778;9.986;2023-12-04T13:02:06;-1.70;99.90
5588;DHT22;2816;49.778;9.986;2023-12-04T13:04:35;-1.60;99.90
5588;DHT22;2816;49.778;9.986;2023-12-04T13:07:04;-1.70;99.90
5588;DHT22;2816;49.778;9.986;2023-12-04T13:09:32;-1.80;99.90
5588;DHT22;2816;49.778;9.986;2023-12-04T13:12:01;-1.80;99.90
5588;DHT22;2816;49.778;9.986;2023-12-04T13:14:28;-1.90;99.90
5588;DHT22;2816;49.778;9.986;2023-12-04T13:16:55;-1.90;99.90
5588;DHT22;2816;49.778;9.986;2023-12-04T13:19:22;-1.80;99.90
5588;DHT22;2816;49.778;9.986;2023-12-04T13:21:50;-1.70;99.90
5588;DHT22;2816;49.778;9.986;2023-12-04T13:24:18;-1.70;99.90
5588;DHT22;2816;49.778;9.986;2023-12-04T13:26:46;-1.70;99.90
5588;DHT22;2816;49.778;9.986;2023-12-04T13:29:13;-1.60;99.90
5588;DHT22;2816;49.778;9.986;2023-12-04T13:31:43;-1.70;99.90
5588;DHT22;2816;49.778;9.986;2023-12-04T13:34:12;-1.70;99.90
5588;DHT22;2816;49.778;9.986;2023-12-04T13:36:39;-1.70;99.90
5588;DHT22;2816;49.778;9.986;2023-12-04T13:39:06;-1.70;99.90
5588;DHT22;2816;49.778;9.986;2023-12-04T13:41:43;-1.70;99.90
5588;DHT22;2816;49.778;9.986;2023-12-04T13:44:28;-1.60;99.90
5588;DHT22;2816;49.778;9.986;2023-12-04T13:46:55;-1.60;99.90
5588;DHT22;2816;49.778;9.986;2023-12-04T13:49:22;-1.50;99.90
5588;DHT22;2816;49.778;9.986;2023-12-04T13:51:49;-1.60;99.90
5588;DHT22;2816;49.778;9.986;2023-12-04T13:54:16;-1.70;99.90
5588;DHT22;2816;49.778;9.986;2023-12-04T13:56:48;-1.70;99.90
5588;DHT22;2816;49.778;9.986;2023-12-04T13:59:26;-1.70;99.90
5588;DHT22;2816;49.778;9.986;2023-12-04T14:01:53;-1.70;99.90
5588;DHT22;2816;49.778;9.986;2023-12-04T14:04:22;-1.70;99.90
5588;DHT22;2816;49.778;9.986;2023-12-04T14:06:50;-1.60;99.90
5588;DHT22;2816;49.778;9.986;2023-12-04T14:09:17;-1.60;99.90
5588;DHT22;2816;49.778;9.986;2023-12-04T14:11:44;-1.60;99.90
5588;DHT22;2816;49.778;9.986;2023-12-04T14:14:12;-1.70;99.90
5588;DHT22;2816;49.778;9.986;2023-12-04T14:16:39;-1.80;99.90
5588;DHT22;2816;49.778;9.986;2023-12-04T14:19:07;-1.80;99.90
5588;DHT22;2816;49.778;9.986;2023-12-04T14:21:34;-1.80;99.90
5588;DHT22;2816;49.778;9.986;2023-12-04T14:24:01;-1.80;99.90
5588;DHT22;2816;49.778;9.986;2023-12-04T14:26:28;-1.80;99.90
5588;DHT22;2816;49.778;9.986;2023-12-04T14:28:55;-1.80;99.90
5588;DHT22;2816;49.778;9.986;2023-12-04T14:31:27;-1.80;99.90
5588;DHT22;2816;49.778;9.986;2023-12-04T14:33:55;-1.90;99.90
5588;DHT22;2816;49.778;9.986;2023-12-04T14:36:22;-1.80;99.90
5588;DHT22;2816;49.778;9.986;2023-12-04T14:38:49;-1.90;99.90
5588;DHT22;2816;49.778;9.986;2023-12-04T14:41:16;-1.90;99.90
5588;DHT22;2816;49.778;9.986;2023-12-04T14:43:43;-1.90;99.90
5588;DHT22;2816;49.778;9.986;2023-12-04T14:46:10;-1.70;99.90
5588;DHT22;2816;49.778;9.986;2023-12-04T14:48:39;-1.80;99.90
5588;DHT22;2816;49.778;9.986;2023-12-04T14:51:07;-1.80;99.90
5588;DHT22;2816;49.778;9.986;2023-12-04T14:53:36;-1.80;99.90
5588;DHT22;2816;49.778;9.986;2023-12-04T14:56:11;-1.90;99.90
5588;DHT22;2816;49.778;9.986;2023-12-04T14:58:55;-1.90;99.90
5588;DHT22;2816;49.778;9.986;2023-12-04T15:01:45;-2.00;99.90
5588;DHT22;2816;49.778;9.986;2023-12-04T15:04:29;-2.00;99.90
5588;DHT22;2816;49.778;9.986;2023-12-04T15:07:13;-1.90;99.90
5588;DHT22;2816;49.778;9.986;2023-12-04T15:09:54;-1.90;99.90
5588;DHT22;2816;49.778;9.986;2023-12-04T15:12:53;-2.00;99.90
5588;DHT22;2816;49.778;9.986;2023-12-04T15:15:33;-2.00;99.90
5588;DHT22;2816;49.778;9.986;2023-12-04T15:18:25;-2.10;99.90
5588;DHT22;2816;49.778;9.986;2023-12-04T15:21:04;-2.10;99.90
5588;DHT22;2816;49.778;9.986;2023-12-04T15:23:31;-2.10;99.90
5588;DHT22;2816;49.778;9.986;2023-12-04T15:25:57;-2.10;99.90
5588;DHT22;2816;49.778;9.986;2023-12-04T15:28:24;-2.10;99.90
5588;DHT22;2816;49.778;9.986;2023-12-04T15:30:50;-2.10;99.90
5588;DHT22;2816;49.778;9.986;2023-12-04T15:33:17;-2.10;99.90
5588;DHT22;2816;49.778;9.986;2023-12-04T15:35:46;-2.10;99.90
5588;DHT22;2816;49.778;9.986;2023-12-04T15:38:14;-2.20;99.90
5588;DHT22;2816;49.778;9.986;2023-12-04T15:40:41;-2.20;99.90
5588;DHT22;2816;49.778;9.986;2023-12-04T15:43:07;-2.20;99.90
5588;DHT22;2816;49.778;9.986;2023-12-04T15:45:34;-2.00;99.90
5588;DHT22;2816;49.778;9.986;2023-12-04T15:48:00;-1.80;99.90
5588;DHT22;2816;49.778;9.986;2023-12-04T15:50:27;-1.90;99.90
5588;DHT22;2816;49.778;9.986;2023-12-04T15:52:52;-1.90;99.90
5588;DHT22;2816;49.778;9.986;2023-12-04T15:55:21;-1.90;99.90
5588;DHT22;2816;49.778;9.986;2023-12-04T15:57:48;-1.90;99.90
5588;DHT22;2816;49.778;9.986;2023-12-04T16:00:20;-1.90;99.90
5588;DHT22;2816;49.778;9.986;2023-12-04T16:02:47;-1.90;99.90
5588;DHT22;2816;49.778;9.986;2023-12-04T16:05:15;-2.00;99.90
5588;DHT22;2816;49.778;9.986;2023-12-04T16:07:42;-2.00;99.90